createdAt,value
2022-11-13T00:00:52.675Z,99.90
2022-11-13T00:02:55.863Z,99.90
2022-11-13T00:04:59.075Z,99.90
2022-11-13T00:07:04.920Z,99.90
2022-11-13T00:09:12.360Z,99.90
2022-11-13T00:11:18.501Z,99.90
2022-11-13T00:13:23.979Z,99.90
2022-11-13T00:15:31.137Z,99.90
2022-11-13T00:17:34.382Z,99.90
2022-11-13T00:19:38.001Z,99.90
2022-11-13T00:21:41.310Z,99.90
2022-11-13T00:23:45.213Z,99.90
2022-11-13T00:25:49.969Z,99.90
2022-11-13T00:27:53.593Z,99.90
2022-11-13T00:29:56.824Z,99.90
2022-11-13T00:32:00.399Z,99.90
2022-11-13T00:36:29.031Z,99.90
2022-11-13T00:38:32.717Z,99.90
2022-11-13T00:40:36.023Z,99.90
2022-11-13T00:42:40.734Z,99.90
2022-11-13T00:44:43.925Z,99.90
2022-11-13T00:46:47.175Z,99.90
2022-11-13T00:48:50.554Z,99.90
2022-11-13T00:50:54.694Z,99.90
2022-11-13T00:52:57.905Z,99.90
2022-11-13T00:55:01.395Z,99.90
2022-11-13T00:57:04.646Z,99.90
2022-11-13T00:59:09.337Z,99.90
2022-11-13T01:01:14.763Z,99.90
2022-11-13T01:03:19.278Z,99.90
2022-11-13T01:05:22.532Z,99.90
2022-11-13T01:07:25.760Z,99.90
2022-11-13T01:09:28.967Z,99.90
2022-11-13T01:11:35.975Z,99.90
2022-11-13T01:13:39.667Z,99.90
2022-11-13T01:15:45.952Z,99.90
2022-11-13T01:17:49.155Z,99.90
2022-11-13T01:19:56.317Z,99.90
2022-11-13T01:21:59.643Z,99.90
2022-11-13T01:24:03.207Z,99.90
2022-11-13T01:26:10.018Z,99.90
2022-11-13T01:28:13.290Z,99.90
2022-11-13T01:30:16.640Z,99.90
2022-11-13T01:32:21.301Z,99.90
2022-11-13T01:34:24.691Z,99.90
2022-11-13T01:36:29.429Z,99.90
2022-11-13T01:38:36.253Z,99.90
2022-11-13T01:40:46.706Z,99.90
2022-11-13T01:42:49.914Z,99.90
2022-11-13T01:44:54.919Z,99.90
2022-11-13T01:46:58.475Z,99.90
2022-11-13T01:49:16.515Z,99.90
2022-11-13T01:51:25.437Z,99.90
2022-11-13T01:53:29.741Z,99.90
2022-11-13T01:55:33.123Z,99.90
2022-11-13T01:57:36.677Z,99.90
2022-11-13T01:59:42.979Z,99.90
2022-11-13T02:01:46.572Z,99.90
2022-11-13T02:03:50.132Z,99.90
2022-11-13T02:05:55.724Z,99.90
2022-11-13T02:07:59.020Z,99.90
2022-11-13T02:10:05.778Z,99.90
2022-11-13T02:12:12.966Z,99.90
2022-11-13T02:14:17.171Z,99.90
2022-11-13T02:16:23.184Z,99.90
2022-11-13T02:18:28.871Z,99.90
2022-11-13T02:20:39.180Z,99.90
2022-11-13T02:22:51.795Z,99.90
2022-11-13T02:25:00.206Z,99.90
2022-11-13T02:27:07.034Z,99.90
2022-11-13T02:29:10.367Z,99.90
2022-11-13T02:31:15.359Z,99.90
2022-11-13T02:33:24.053Z,99.90
2022-11-13T02:35:29.761Z,99.90
2022-11-13T02:37:33.158Z,99.90
2022-11-13T02:39:36.752Z,99.90
2022-11-13T02:41:41.559Z,99.90
2022-11-13T02:43:44.865Z,99.90
2022-11-13T02:45:48.036Z,99.90
2022-11-13T02:47:51.379Z,99.90
2022-11-13T02:49:54.677Z,99.90
2022-11-13T02:51:57.923Z,99.90
2022-11-13T02:54:01.559Z,99.90
2022-11-13T02:56:05.016Z,99.90
2022-11-13T02:58:09.722Z,99.90
2022-11-13T03:00:14.503Z,99.90
2022-11-13T03:02:17.794Z,99.90
2022-11-13T03:04:21.024Z,99.90
2022-11-13T03:06:24.279Z,99.90
2022-11-13T03:08:27.906Z,99.90
2022-11-13T03:10:31.307Z,99.90
2022-11-13T03:12:35.435Z,99.90
2022-11-13T03:14:40.129Z,99.90
2022-11-13T03:16:43.650Z,99.90
2022-11-13T03:18:46.942Z,99.90
2022-11-13T03:20:53.990Z,99.90
2022-11-13T03:22:57.311Z,99.90
2022-11-13T03:25:00.579Z,99.90
2022-11-13T03:27:04.070Z,99.90
2022-11-13T03:29:07.360Z,99.90
2022-11-13T03:31:12.143Z,99.90
2022-11-13T03:33:17.555Z,99.90
2022-11-13T03:35:20.994Z,99.90
2022-11-13T03:37:24.265Z,99.90
2022-11-13T03:39:27.417Z,99.90
2022-11-13T03:41:30.852Z,99.90
2022-11-13T03:43:34.006Z,99.90
2022-11-13T03:45:37.218Z,99.90
2022-11-13T03:47:42.022Z,99.90
2022-11-13T03:49:45.813Z,99.90
2022-11-13T03:51:49.103Z,99.90
2022-11-13T03:53:52.388Z,99.90
2022-11-13T03:55:55.824Z,99.90
2022-11-13T03:57:59.038Z,99.90
2022-11-13T04:00:04.586Z,99.90
2022-11-13T04:02:07.824Z,99.90
2022-11-13T04:04:12.831Z,99.90
2022-11-13T04:06:16.032Z,99.90
2022-11-13T04:08:19.367Z,99.90
2022-11-13T04:10:22.620Z,99.90
2022-11-13T04:12:25.984Z,99.90
2022-11-13T04:14:29.190Z,99.90
2022-11-13T04:16:32.420Z,99.90
2022-11-13T04:18:35.825Z,99.90
2022-11-13T04:20:40.486Z,99.90
2022-11-13T04:22:44.251Z,99.90
2022-11-13T04:24:47.563Z,99.90
2022-11-13T04:26:50.723Z,99.90
2022-11-13T04:28:54.280Z,99.90
2022-11-13T04:30:57.759Z,99.90
2022-11-13T04:33:01.205Z,99.90
2022-11-13T04:35:04.868Z,99.90
2022-11-13T04:37:09.586Z,99.90
2022-11-13T04:39:12.773Z,99.90
2022-11-13T04:41:52.519Z,99.90
2022-11-13T04:43:58.313Z,99.90
2022-11-13T04:46:01.660Z,99.90
2022-11-13T04:48:05.210Z,99.90
2022-11-13T04:50:08.778Z,99.90
2022-11-13T04:52:14.069Z,99.90
2022-11-13T04:54:17.420Z,99.90
2022-11-13T04:56:21.001Z,99.90
2022-11-13T04:58:24.316Z,99.90
2022-11-13T05:00:27.573Z,99.90
2022-11-13T05:02:30.870Z,99.90
2022-11-13T05:04:34.312Z,99.90
2022-11-13T05:06:37.555Z,99.90
2022-11-13T05:08:42.490Z,99.90
2022-11-13T05:10:45.728Z,99.90
2022-11-13T05:12:48.925Z,99.90
2022-11-13T05:14:52.218Z,99.90
2022-11-13T05:16:55.401Z,99.90
2022-11-13T05:19:00.132Z,99.90
2022-11-13T05:21:03.660Z,99.90
2022-11-13T05:23:06.914Z,99.90
2022-11-13T05:25:11.692Z,99.90
2022-11-13T05:27:17.548Z,99.90
2022-11-13T05:29:21.342Z,99.90
2022-11-13T05:31:24.625Z,99.90
2022-11-13T05:33:30.534Z,99.90
2022-11-13T05:35:34.130Z,99.90
2022-11-13T05:37:37.363Z,99.90
2022-11-13T05:39:40.542Z,99.90
2022-11-13T05:41:45.129Z,99.90
2022-11-13T05:43:49.022Z,99.90
2022-11-13T05:45:52.442Z,99.90
2022-11-13T05:47:55.659Z,99.90
2022-11-13T05:49:58.889Z,99.90
2022-11-13T05:52:02.124Z,99.90
2022-11-13T05:54:06.234Z,99.90
2022-11-13T05:56:12.451Z,99.90
2022-11-13T05:58:17.069Z,99.90
2022-11-13T06:00:20.647Z,99.90
2022-11-13T06:02:24.002Z,99.90
2022-11-13T06:04:27.349Z,99.90
2022-11-13T06:06:31.917Z,99.90
2022-11-13T06:08:35.527Z,99.90
2022-11-13T06:10:38.808Z,99.90
2022-11-13T06:12:41.974Z,99.90
2022-11-13T06:14:46.764Z,99.90
2022-11-13T06:16:50.000Z,99.90
2022-11-13T06:18:56.714Z,99.90
2022-11-13T06:21:02.726Z,99.90
2022-11-13T06:23:05.949Z,99.90
2022-11-13T06:25:09.346Z,99.90
2022-11-13T06:27:13.018Z,99.90
2022-11-13T06:29:16.201Z,99.90
2022-11-13T06:31:24.386Z,99.90
2022-11-13T06:33:29.789Z,99.90
2022-11-13T06:35:33.423Z,99.90
2022-11-13T06:37:36.663Z,99.90
2022-11-13T06:39:40.106Z,99.90
2022-11-13T06:41:43.261Z,99.90
2022-11-13T06:43:47.731Z,99.90
2022-11-13T06:45:51.321Z,99.90
2022-11-13T06:47:56.948Z,99.90
2022-11-13T06:50:00.210Z,99.90
2022-11-13T06:52:03.474Z,99.90
2022-11-13T06:54:06.880Z,99.90
2022-11-13T06:56:10.311Z,99.90
2022-11-13T06:58:13.811Z,99.90
2022-11-13T07:00:18.238Z,99.90
2022-11-13T07:02:21.545Z,99.90
2022-11-13T07:04:26.545Z,99.90
2022-11-13T07:06:29.837Z,99.90
2022-11-13T07:08:33.384Z,99.90
2022-11-13T07:10:36.722Z,99.90
2022-11-13T07:12:41.753Z,99.90
2022-11-13T07:14:45.070Z,99.90
2022-11-13T07:17:08.627Z,99.90
2022-11-13T07:19:11.712Z,99.90
2022-11-13T07:21:16.238Z,99.90
2022-11-13T07:23:19.550Z,99.90
2022-11-13T07:25:23.098Z,99.90
2022-11-13T07:27:26.390Z,99.90
2022-11-13T07:29:29.627Z,99.90
2022-11-13T07:31:32.928Z,99.90
2022-11-13T07:33:36.203Z,99.90
2022-11-13T07:35:39.652Z,99.90
2022-11-13T07:37:44.580Z,99.90
2022-11-13T07:39:47.770Z,99.90
2022-11-13T07:41:50.998Z,99.90
2022-11-13T07:43:54.550Z,99.90
2022-11-13T07:46:01.754Z,99.90
2022-11-13T07:48:05.991Z,99.90
2022-11-13T07:50:11.145Z,99.90
2022-11-13T07:52:14.554Z,99.90
2022-11-13T07:54:19.176Z,99.90
2022-11-13T07:56:23.408Z,99.90
2022-11-13T07:58:27.167Z,99.90
2022-11-13T08:00:33.153Z,99.90
2022-11-13T08:02:36.757Z,99.90
2022-11-13T08:04:40.116Z,99.90
2022-11-13T08:06:43.910Z,99.90
2022-11-13T08:08:49.097Z,99.90
2022-11-13T08:10:54.068Z,99.90
2022-11-13T08:13:02.136Z,99.90
2022-11-13T08:15:09.369Z,99.90
2022-11-13T08:17:16.779Z,99.90
2022-11-13T08:19:20.070Z,99.90
2022-11-13T08:21:23.363Z,99.90
2022-11-13T08:23:26.957Z,99.90
2022-11-13T08:25:30.950Z,99.90
2022-11-13T08:27:35.789Z,99.90
2022-11-13T08:29:39.237Z,99.90
2022-11-13T08:31:42.578Z,99.90
2022-11-13T08:33:45.970Z,99.90
2022-11-13T08:35:59.628Z,99.90
2022-11-13T08:38:07.016Z,99.90
2022-11-13T08:40:11.505Z,99.90
2022-11-13T08:42:15.190Z,99.90
2022-11-13T08:44:19.929Z,99.90
2022-11-13T08:46:23.231Z,99.90
2022-11-13T08:48:26.817Z,99.90
2022-11-13T08:50:31.541Z,99.90
2022-11-13T08:52:34.883Z,99.90
2022-11-13T08:54:38.255Z,99.90
2022-11-13T08:56:41.661Z,98.10
2022-11-13T08:58:45.061Z,97.40
2022-11-13T09:00:49.738Z,94.50
2022-11-13T09:02:55.885Z,94.30
2022-11-13T09:04:59.095Z,94.40
2022-11-13T09:07:02.323Z,93.20
2022-11-13T09:09:06.818Z,91.50
2022-11-13T09:11:10.218Z,91.40
2022-11-13T09:13:13.454Z,92.30
2022-11-13T09:15:21.696Z,91.10
2022-11-13T09:17:28.753Z,91.20
2022-11-13T09:19:32.143Z,89.40
2022-11-13T09:21:35.513Z,87.90
2022-11-13T09:23:39.107Z,85.60
2022-11-13T09:25:42.608Z,84.70
2022-11-13T09:27:53.094Z,82.80
2022-11-13T09:29:56.349Z,80.90
2022-11-13T09:31:59.595Z,78.80
2022-11-13T09:34:04.365Z,77.50
2022-11-13T09:36:13.119Z,75.30
2022-11-13T09:38:17.290Z,78.10
2022-11-13T09:40:29.157Z,75.90
2022-11-13T09:42:34.238Z,76.60
2022-11-13T09:44:41.598Z,75.60
2022-11-13T09:46:48.833Z,77.10
2022-11-13T09:48:57.193Z,76.70
2022-11-13T09:51:07.605Z,78.70
2022-11-13T09:53:13.197Z,78.00
2022-11-13T09:55:19.986Z,76.20
2022-11-13T09:57:33.750Z,71.50
2022-11-13T09:59:41.014Z,74.80
2022-11-13T10:01:52.487Z,73.20
2022-11-13T10:04:04.330Z,70.80
2022-11-13T10:06:22.274Z,67.90
2022-11-13T10:08:29.612Z,71.30
2022-11-13T10:10:48.259Z,73.30
2022-11-13T10:12:59.383Z,68.00
2022-11-13T10:15:06.275Z,66.70
2022-11-13T10:17:15.463Z,71.70
2022-11-13T10:19:25.897Z,74.80
2022-11-13T10:21:36.360Z,72.70
2022-11-13T10:23:40.267Z,73.60
2022-11-13T10:25:45.699Z,71.40
2022-11-13T10:27:55.253Z,76.20
2022-11-13T10:29:58.876Z,74.50
2022-11-13T10:32:18.894Z,76.10
2022-11-13T10:34:22.683Z,76.60
2022-11-13T10:36:35.414Z,82.00
2022-11-13T10:38:44.559Z,85.00
2022-11-13T10:40:47.841Z,79.50
2022-11-13T10:42:51.113Z,78.30
2022-11-13T10:44:56.975Z,79.10
2022-11-13T10:47:15.012Z,82.50
2022-11-13T10:49:21.160Z,79.40
2022-11-13T10:51:27.500Z,78.60
2022-11-13T10:53:42.705Z,78.80
2022-11-13T10:55:47.470Z,80.30
2022-11-13T10:57:57.770Z,78.80
2022-11-13T11:00:01.382Z,77.80
2022-11-13T11:02:16.967Z,80.10
2022-11-13T11:04:24.085Z,81.80
2022-11-13T11:07:04.478Z,88.20
2022-11-13T11:09:09.326Z,89.90
2022-11-13T11:11:34.108Z,91.40
2022-11-13T11:13:37.350Z,93.30
2022-11-13T11:15:46.274Z,94.10
2022-11-13T11:17:54.074Z,92.70
2022-11-13T11:20:02.938Z,92.70
2022-11-13T11:22:14.602Z,93.20
2022-11-13T11:24:24.873Z,92.90
2022-11-13T11:26:34.919Z,94.60
2022-11-13T11:28:44.317Z,95.30
2022-11-13T11:30:51.733Z,95.70
2022-11-13T11:33:02.044Z,94.30
2022-11-13T11:35:15.668Z,93.40
2022-11-13T11:37:20.921Z,90.20
2022-11-13T11:39:33.486Z,89.50
2022-11-13T11:41:47.132Z,90.20
2022-11-13T11:44:02.381Z,90.40
2022-11-13T11:46:05.972Z,90.90
2022-11-13T11:48:15.427Z,91.60
2022-11-13T11:50:28.541Z,92.00
2022-11-13T11:52:50.963Z,92.40
2022-11-13T11:55:22.003Z,93.80
2022-11-13T11:57:39.631Z,92.90
2022-11-13T11:59:54.636Z,93.80
2022-11-13T12:02:36.281Z,91.50
2022-11-13T12:04:54.216Z,94.20
2022-11-13T12:07:11.537Z,93.30
2022-11-13T12:09:21.074Z,95.90
2022-11-13T12:11:30.564Z,96.20
2022-11-13T12:13:38.329Z,95.90
2022-11-13T12:15:49.087Z,93.10
2022-11-13T12:18:00.551Z,90.40
2022-11-13T12:20:10.700Z,90.90
2022-11-13T12:22:20.992Z,89.70
2022-11-13T12:24:55.124Z,87.40
2022-11-13T12:27:11.608Z,87.80
2022-11-13T12:29:29.228Z,85.60
2022-11-13T12:31:48.550Z,81.50
2022-11-13T12:34:01.521Z,80.00
2022-11-13T12:36:06.316Z,82.20
2022-11-13T12:38:19.317Z,80.90
2022-11-13T12:40:29.320Z,79.20
2022-11-13T12:42:37.156Z,78.90
2022-11-13T12:44:48.590Z,81.80
2022-11-13T12:46:54.113Z,79.90
2022-11-13T12:48:57.364Z,79.00
2022-11-13T12:51:03.840Z,79.30
2022-11-13T12:53:09.854Z,79.90
2022-11-13T12:55:27.872Z,80.00
2022-11-13T12:57:33.980Z,79.60
2022-11-13T12:59:42.199Z,77.70
2022-11-13T13:01:49.314Z,78.60
2022-11-13T13:04:40.221Z,80.10
2022-11-13T13:06:58.891Z,80.70
2022-11-13T13:09:17.255Z,78.90
2022-11-13T13:11:28.180Z,78.40
2022-11-13T13:13:42.287Z,79.20
2022-11-13T13:15:54.527Z,78.20
2022-11-13T13:18:11.841Z,78.30
2022-11-13T13:20:34.293Z,78.70
2022-11-13T13:22:37.976Z,78.10
2022-11-13T13:24:41.791Z,78.10
2022-11-13T13:26:48.813Z,79.90
2022-11-13T13:28:55.681Z,77.50
2022-11-13T13:31:09.592Z,81.70
2022-11-13T13:33:22.883Z,79.70
2022-11-13T13:35:31.922Z,80.20
2022-11-13T13:37:44.379Z,79.60
2022-11-13T13:39:59.700Z,81.80
2022-11-13T13:42:17.130Z,80.10
2022-11-13T13:44:42.743Z,78.80
2022-11-13T13:46:46.278Z,89.40
2022-11-13T13:48:53.401Z,82.60
2022-11-13T13:50:57.813Z,82.00
2022-11-13T13:53:01.860Z,82.30
2022-11-13T13:55:08.959Z,84.30
2022-11-13T13:57:16.064Z,87.40
2022-11-13T13:59:21.693Z,87.80
2022-11-13T14:01:31.209Z,88.30
2022-11-13T14:03:34.670Z,89.20
2022-11-13T14:05:38.642Z,90.70
2022-11-13T14:07:47.487Z,90.30
2022-11-13T14:09:51.162Z,91.10
2022-11-13T14:12:06.341Z,91.10
2022-11-13T14:14:17.634Z,90.80
2022-11-13T14:16:20.897Z,91.70
2022-11-13T14:18:27.364Z,92.40
2022-11-13T14:20:46.363Z,93.80
2022-11-13T14:22:56.360Z,94.70
2022-11-13T14:25:02.051Z,95.90
2022-11-13T14:27:08.371Z,96.90
2022-11-13T14:29:23.663Z,98.10
2022-11-13T14:31:30.569Z,99.90
2022-11-13T14:33:39.435Z,99.90
2022-11-13T14:35:42.943Z,99.90
2022-11-13T14:37:47.362Z,99.90
2022-11-13T14:39:51.964Z,99.90
2022-11-13T14:41:58.617Z,99.90
2022-11-13T14:44:01.927Z,99.90
2022-11-13T14:46:07.203Z,99.90
2022-11-13T14:48:21.677Z,99.90
2022-11-13T14:50:28.685Z,99.90
2022-11-13T14:52:31.942Z,99.90
2022-11-13T14:55:08.006Z,99.90
2022-11-13T14:57:11.533Z,99.90
2022-11-13T14:59:19.851Z,99.90
2022-11-13T15:01:25.585Z,99.90
2022-11-13T15:03:31.169Z,99.90
2022-11-13T15:05:36.469Z,99.90
2022-11-13T15:07:43.444Z,99.90
2022-11-13T15:09:46.937Z,99.90
2022-11-13T15:11:50.949Z,99.90
2022-11-13T15:13:54.662Z,99.90
2022-11-13T15:15:58.137Z,99.90
2022-11-13T15:18:03.526Z,99.90
2022-11-13T15:20:09.790Z,99.90
2022-11-13T15:22:31.304Z,99.90
2022-11-13T15:24:34.748Z,99.90
2022-11-13T15:26:38.140Z,99.90
2022-11-13T15:28:41.788Z,99.90
2022-11-13T15:30:45.179Z,99.90
2022-11-13T15:32:49.338Z,99.90
2022-11-13T15:34:52.566Z,99.90
2022-11-13T15:36:55.960Z,99.90
2022-11-13T15:39:06.116Z,99.90
2022-11-13T15:41:13.964Z,99.90
2022-11-13T15:43:20.279Z,99.90
2022-11-13T15:45:23.644Z,99.90
2022-11-13T15:47:29.358Z,99.90
2022-11-13T15:49:32.679Z,99.90
2022-11-13T15:51:39.045Z,99.90
2022-11-13T15:53:42.482Z,99.90
2022-11-13T15:55:47.378Z,99.90
2022-11-13T15:57:51.241Z,99.90
2022-11-13T15:59:54.882Z,99.90
2022-11-13T16:01:58.512Z,99.90
2022-11-13T16:04:02.580Z,99.90
2022-11-13T16:06:05.934Z,99.90
2022-11-13T16:08:13.962Z,99.90
2022-11-13T16:10:17.373Z,99.90
2022-11-13T16:12:21.967Z,99.90
2022-11-13T16:14:25.542Z,99.90
2022-11-13T16:16:32.007Z,99.90
2022-11-13T16:18:35.648Z,99.90
2022-11-13T16:20:38.828Z,99.90
2022-11-13T16:22:42.389Z,99.90
2022-11-13T16:24:45.988Z,99.90
2022-11-13T16:26:52.041Z,99.90
2022-11-13T16:29:13.189Z,99.90
2022-11-13T16:31:17.374Z,99.90
2022-11-13T16:33:20.755Z,99.90
2022-11-13T16:35:23.964Z,99.90
2022-11-13T16:37:27.170Z,99.90
2022-11-13T16:39:30.351Z,99.90
2022-11-13T16:41:34.022Z,99.90
2022-11-13T16:43:37.209Z,99.90
2022-11-13T16:45:41.926Z,99.90
2022-11-13T16:47:46.046Z,99.90
2022-11-13T16:49:49.325Z,99.90
2022-11-13T16:51:53.697Z,99.90
2022-11-13T16:53:57.143Z,99.90
2022-11-13T16:56:01.796Z,99.90
2022-11-13T16:58:05.971Z,99.90
2022-11-13T17:00:13.405Z,99.90
2022-11-13T17:02:19.611Z,99.90
2022-11-13T17:04:23.281Z,99.90
2022-11-13T17:06:28.753Z,99.90
2022-11-13T17:08:32.055Z,99.90
2022-11-13T17:10:35.441Z,99.90
2022-11-13T17:12:38.832Z,99.90
2022-11-13T17:14:42.275Z,99.90
2022-11-13T17:16:45.577Z,99.90
2022-11-13T17:18:52.116Z,99.90
2022-11-13T17:20:55.472Z,99.90
2022-11-13T17:22:58.858Z,99.90
2022-11-13T17:25:02.189Z,99.90
2022-11-13T17:27:05.748Z,99.90
2022-11-13T17:29:09.039Z,99.90
2022-11-13T17:31:13.807Z,99.90
2022-11-13T17:33:17.552Z,99.90
2022-11-13T17:35:22.309Z,99.90
2022-11-13T17:37:25.633Z,99.90
2022-11-13T17:39:29.031Z,99.90
2022-11-13T17:41:32.279Z,99.90
2022-11-13T17:43:36.987Z,99.90
2022-11-13T17:45:40.764Z,99.90
2022-11-13T17:47:44.096Z,99.90
2022-11-13T17:49:47.812Z,99.90
2022-11-13T17:51:52.418Z,99.90
2022-11-13T17:53:58.562Z,99.90
2022-11-13T17:56:03.635Z,99.90
2022-11-13T17:58:07.016Z,99.90
2022-11-13T18:00:11.473Z,99.90
2022-11-13T18:02:14.787Z,99.90
2022-11-13T18:04:17.986Z,99.90
2022-11-13T18:06:21.953Z,99.90
2022-11-13T18:08:26.604Z,99.90
2022-11-13T18:10:29.928Z,99.90
2022-11-13T18:12:33.535Z,99.90
2022-11-13T18:14:36.734Z,99.90
2022-11-13T18:16:39.991Z,99.90
2022-11-13T18:18:43.743Z,99.90
2022-11-13T18:20:46.950Z,99.90
2022-11-13T18:22:50.320Z,99.90
2022-11-13T18:24:55.659Z,99.90
2022-11-13T18:26:58.872Z,99.90
2022-11-13T18:29:02.710Z,99.90
2022-11-13T18:31:10.391Z,99.90
2022-11-13T18:33:13.765Z,99.90
2022-11-13T18:35:17.162Z,99.90
2022-11-13T18:37:20.385Z,99.90
2022-11-13T18:39:23.656Z,99.90
2022-11-13T18:41:28.374Z,99.90
2022-11-13T18:43:31.907Z,99.90
2022-11-13T18:45:35.351Z,99.90
2022-11-13T18:47:38.637Z,99.90
2022-11-13T18:49:41.799Z,99.90
2022-11-13T18:51:45.013Z,99.90
2022-11-13T18:53:49.951Z,99.90
2022-11-13T18:55:53.432Z,99.90
2022-11-13T18:57:58.267Z,99.90
2022-11-13T19:00:01.460Z,99.90
2022-11-13T19:02:05.005Z,99.90
2022-11-13T19:04:24.319Z,99.90
2022-11-13T19:06:28.479Z,99.90
2022-11-13T19:08:31.949Z,99.90
2022-11-13T19:10:35.572Z,99.90
2022-11-13T19:12:38.965Z,99.90
2022-11-13T19:14:44.009Z,99.90
2022-11-13T19:16:47.652Z,99.90
2022-11-13T19:18:53.625Z,99.90
2022-11-13T19:20:57.096Z,99.90
2022-11-13T19:23:03.983Z,99.90
2022-11-13T19:25:10.120Z,99.90
2022-11-13T19:27:13.426Z,99.90
2022-11-13T19:29:16.790Z,99.90
2022-11-13T19:31:23.811Z,99.90
2022-11-13T19:33:28.368Z,99.90
2022-11-13T19:35:33.490Z,99.90
2022-11-13T19:37:36.820Z,99.90
2022-11-13T19:39:40.106Z,99.90
2022-11-13T19:41:43.775Z,99.90
2022-11-13T19:43:48.027Z,99.90
2022-11-13T19:45:54.168Z,99.90
2022-11-13T19:47:59.413Z,99.90
2022-11-13T19:50:02.907Z,99.90
2022-11-13T19:52:06.566Z,99.90
2022-11-13T19:54:10.366Z,99.90
2022-11-13T19:56:15.392Z,99.90
2022-11-13T19:58:19.037Z,99.90
2022-11-13T20:00:22.357Z,99.90
2022-11-13T20:02:25.995Z,99.90
2022-11-13T20:04:31.102Z,99.90
2022-11-13T20:06:34.861Z,99.90
2022-11-13T20:08:39.104Z,99.90
2022-11-13T20:10:42.527Z,99.90
2022-11-13T20:12:46.477Z,99.90
2022-11-13T20:14:49.803Z,99.90
2022-11-13T20:16:53.171Z,99.90
2022-11-13T20:18:58.592Z,99.90
2022-11-13T20:21:03.470Z,99.90
2022-11-13T20:23:07.119Z,99.90
2022-11-13T20:25:11.022Z,99.90
2022-11-13T20:27:14.358Z,99.90
2022-11-13T20:29:17.809Z,99.90
2022-11-13T20:31:22.844Z,99.90
2022-11-13T20:33:26.374Z,99.90
2022-11-13T20:35:29.621Z,99.90
2022-11-13T20:37:34.878Z,99.90
2022-11-13T20:39:39.008Z,99.90
2022-11-13T20:41:42.564Z,99.90
2022-11-13T20:43:45.855Z,99.90
2022-11-13T20:45:49.146Z,99.90
2022-11-13T20:47:52.441Z,99.90
2022-11-13T20:49:55.982Z,99.90
2022-11-13T20:51:59.166Z,99.90
2022-11-13T20:54:04.003Z,99.90
2022-11-13T20:56:08.421Z,99.90
2022-11-13T20:58:11.854Z,99.90
2022-11-13T21:00:16.235Z,99.90
2022-11-13T21:02:19.590Z,99.90
2022-11-13T21:04:23.525Z,99.90
2022-11-13T21:06:27.159Z,99.90
2022-11-13T21:08:30.628Z,99.90
2022-11-13T21:10:36.505Z,99.90
2022-11-13T21:12:39.914Z,99.90
2022-11-13T21:14:44.259Z,99.90
2022-11-13T21:16:47.466Z,99.90
2022-11-13T21:18:50.944Z,99.90
2022-11-13T21:20:54.322Z,99.90
2022-11-13T21:22:58.810Z,99.90
2022-11-13T21:25:02.038Z,99.90
2022-11-13T21:29:31.825Z,99.90
2022-11-13T21:31:38.432Z,99.90
2022-11-13T21:33:43.289Z,99.90
2022-11-13T21:35:46.916Z,99.90
2022-11-13T21:37:50.310Z,99.90
2022-11-13T21:39:53.625Z,99.90
2022-11-13T21:41:59.677Z,99.90
2022-11-13T21:44:08.117Z,99.90
2022-11-13T21:46:11.298Z,99.90
2022-11-13T21:48:16.967Z,99.90
2022-11-13T21:50:20.252Z,99.90
2022-11-13T21:52:23.470Z,99.90
2022-11-13T21:54:26.867Z,99.90
2022-11-13T21:56:31.715Z,99.90
2022-11-13T21:58:37.766Z,99.90
2022-11-13T22:00:42.473Z,99.90
2022-11-13T22:02:45.641Z,99.90
2022-11-13T22:04:48.806Z,99.90
2022-11-13T22:06:52.792Z,99.90
2022-11-13T22:08:57.779Z,99.90
2022-11-13T22:11:01.091Z,99.90
2022-11-13T22:13:04.500Z,99.90
2022-11-13T22:15:09.757Z,99.90
2022-11-13T22:17:14.484Z,99.90
2022-11-13T22:19:24.045Z,99.90
2022-11-13T22:21:31.302Z,99.90
2022-11-13T22:23:35.729Z,99.90
2022-11-13T22:25:38.996Z,99.90
2022-11-13T22:27:42.203Z,99.90
2022-11-13T22:29:45.559Z,99.90
2022-11-13T22:31:48.779Z,99.90
2022-11-13T22:33:55.283Z,99.90
2022-11-13T22:36:02.891Z,99.90
2022-11-13T22:38:06.440Z,99.90
2022-11-13T22:40:13.259Z,99.90
2022-11-13T22:42:16.649Z,99.90
2022-11-13T22:44:19.933Z,99.90
2022-11-13T22:46:25.184Z,99.90
2022-11-13T22:48:28.720Z,99.90
2022-11-13T22:50:35.876Z,99.90
2022-11-13T22:52:39.211Z,99.90
2022-11-13T22:54:42.432Z,99.90
2022-11-13T22:56:45.748Z,99.90
2022-11-13T22:58:49.109Z,99.90
2022-11-13T23:00:52.400Z,99.90
2022-11-13T23:02:55.792Z,99.90
2022-11-13T23:04:58.956Z,99.90
2022-11-13T23:07:03.777Z,99.90
2022-11-13T23:09:07.502Z,99.90
2022-11-13T23:11:13.795Z,99.90
2022-11-13T23:13:17.306Z,99.90
2022-11-13T23:15:20.546Z,99.90
2022-11-13T23:17:23.759Z,99.90
2022-11-13T23:19:26.940Z,99.90
2022-11-13T23:21:30.702Z,99.90
2022-11-13T23:23:36.370Z,99.90
2022-11-13T23:25:40.008Z,99.90
2022-11-13T23:27:43.212Z,99.90
2022-11-13T23:29:50.092Z,99.90
2022-11-13T23:31:54.094Z,99.90
2022-11-13T23:33:57.632Z,99.90
2022-11-13T23:36:02.048Z,99.90
2022-11-13T23:38:05.589Z,99.90
2022-11-13T23:40:11.472Z,99.90
2022-11-13T23:42:23.970Z,99.90
2022-11-13T23:44:39.132Z,99.90
2022-11-13T23:46:43.278Z,99.90
2022-11-13T23:48:46.878Z,99.90
2022-11-13T23:50:50.467Z,99.90
2022-11-13T23:52:53.862Z,99.90
2022-11-13T23:54:57.152Z,99.90
2022-11-13T23:57:01.743Z,99.90
2022-11-13T23:59:04.989Z,99.90
